createdAt,value
2022-12-03T00:03:49.073Z,64.13
2022-12-03T00:08:51.327Z,65.14
2022-12-03T00:13:53.354Z,64.18
2022-12-03T00:18:55.473Z,65.21
2022-12-03T00:23:57.579Z,65.19
2022-12-03T00:28:59.566Z,65.30
2022-12-03T00:34:01.624Z,64.99
2022-12-03T00:39:03.768Z,65.19
2022-12-03T00:44:06.273Z,65.15
2022-12-03T00:49:08.287Z,65.38
2022-12-03T00:54:10.323Z,66.02
2022-12-03T00:59:12.403Z,65.50
2022-12-03T01:04:14.508Z,65.60
2022-12-03T01:09:16.593Z,66.11
2022-12-03T01:14:20.319Z,66.99
2022-12-03T01:19:22.392Z,65.77
2022-12-03T01:24:24.360Z,66.48
2022-12-03T01:29:26.752Z,66.52
2022-12-03T01:34:29.147Z,66.94
2022-12-03T01:39:31.151Z,67.41
2022-12-03T01:44:35.172Z,67.21
2022-12-03T01:49:48.616Z,66.61
2022-12-03T01:54:59.591Z,68.10
2022-12-03T02:00:02.124Z,67.87
2022-12-03T02:05:15.388Z,67.48
2022-12-03T02:10:21.042Z,68.13
2022-12-03T02:15:23.256Z,68.19
2022-12-03T02:20:25.227Z,69.01
2022-12-03T02:25:32.258Z,69.03
2022-12-03T02:30:35.098Z,68.09
2022-12-03T02:35:38.829Z,68.28
2022-12-03T02:40:42.008Z,68.78
2022-12-03T02:45:47.905Z,69.23
2022-12-03T02:50:59.551Z,68.86
2022-12-03T02:56:02.830Z,68.93
2022-12-03T03:01:05.675Z,69.42
2022-12-03T03:06:09.450Z,69.14
2022-12-03T03:11:11.837Z,70.03
2022-12-03T03:16:13.868Z,69.67
2022-12-03T03:21:15.767Z,70.31
2022-12-03T03:26:18.007Z,69.22
2022-12-03T03:31:23.802Z,70.30
2022-12-03T03:36:26.476Z,70.24
2022-12-03T03:41:29.734Z,69.95
2022-12-03T03:46:33.652Z,70.14
2022-12-03T03:51:37.179Z,69.93
2022-12-03T03:56:39.164Z,69.77
2022-12-03T04:01:41.180Z,70.51
2022-12-03T04:06:43.219Z,70.34
2022-12-03T04:12:03.557Z,70.50
2022-12-03T04:17:06.934Z,70.55
2022-12-03T04:22:27.302Z,69.95
2022-12-03T04:27:48.028Z,70.86
2022-12-03T04:33:08.488Z,71.23
2022-12-03T04:38:11.187Z,70.92
2022-12-03T04:43:13.343Z,71.32
2022-12-03T04:48:15.378Z,70.93
2022-12-03T04:53:17.296Z,70.70
2022-12-03T04:58:19.152Z,71.72
2022-12-03T05:03:21.087Z,71.23
2022-12-03T05:08:22.975Z,71.42
2022-12-03T05:13:24.907Z,70.97
2022-12-03T05:18:26.779Z,71.36
2022-12-03T05:23:28.618Z,71.32
2022-12-03T05:28:30.600Z,71.50
2022-12-03T05:33:32.976Z,71.39
2022-12-03T05:38:34.930Z,71.07
2022-12-03T05:43:36.835Z,71.62
2022-12-03T05:48:38.691Z,72.14
2022-12-03T05:53:40.703Z,71.38
2022-12-03T05:58:42.582Z,72.06
2022-12-03T06:03:44.628Z,71.72
2022-12-03T06:08:46.560Z,71.54
2022-12-03T06:13:48.462Z,71.27
2022-12-03T06:18:50.388Z,72.19
2022-12-03T06:23:52.298Z,71.63
2022-12-03T06:28:54.197Z,72.17
2022-12-03T06:33:56.089Z,71.68
2022-12-03T06:38:58.004Z,72.38
2022-12-03T06:44:00.666Z,72.13
2022-12-03T06:49:02.567Z,72.12
2022-12-03T06:54:05.641Z,72.00
2022-12-03T06:59:07.654Z,71.90
2022-12-03T07:04:10.218Z,72.16
2022-12-03T07:09:12.198Z,72.10
2022-12-03T07:14:14.262Z,72.50
2022-12-03T07:19:16.929Z,73.06
2022-12-03T07:24:19.042Z,73.41
2022-12-03T07:29:20.964Z,72.12
2022-12-03T07:34:23.882Z,72.43
2022-12-03T07:39:25.925Z,72.47
2022-12-03T07:44:28.570Z,72.69
2022-12-03T07:49:30.505Z,72.55
2022-12-03T07:54:32.483Z,72.73
2022-12-03T07:59:34.484Z,72.46
2022-12-03T08:04:36.454Z,72.55
2022-12-03T08:09:41.063Z,72.13
2022-12-03T08:14:43.504Z,72.31
2022-12-03T08:19:47.375Z,71.93
2022-12-03T08:24:49.336Z,72.42
2022-12-03T08:29:54.432Z,72.22
2022-12-03T08:34:56.513Z,72.28
2022-12-03T08:39:58.579Z,72.46
2022-12-03T08:45:29.570Z,72.70
2022-12-03T08:50:40.344Z,72.59
2022-12-03T08:55:53.284Z,72.67
2022-12-03T09:01:12.621Z,72.13
2022-12-03T09:06:14.694Z,72.54
2022-12-03T09:11:17.008Z,72.67
2022-12-03T09:16:20.209Z,72.65
2022-12-03T09:21:22.236Z,72.98
2022-12-03T09:26:24.280Z,72.45
2022-12-03T09:31:26.433Z,72.94
2022-12-03T09:36:28.610Z,72.93
2022-12-03T09:41:30.769Z,73.14
2022-12-03T09:46:35.116Z,74.07
2022-12-03T09:51:37.486Z,73.92
2022-12-03T09:56:39.613Z,75.16
2022-12-03T10:01:41.720Z,74.91
2022-12-03T10:06:46.093Z,75.56
2022-12-03T10:11:49.140Z,75.60
2022-12-03T10:16:52.515Z,76.13
2022-12-03T10:21:56.092Z,76.26
2022-12-03T10:27:00.764Z,76.20
2022-12-03T10:32:06.172Z,76.00
2022-12-03T10:37:15.834Z,75.86
2022-12-03T10:42:19.509Z,77.08
2022-12-03T10:47:22.932Z,77.40
2022-12-03T10:52:26.140Z,77.97
2022-12-03T10:57:46.102Z,78.05
2022-12-03T11:02:56.110Z,78.89
2022-12-03T11:07:59.192Z,81.06
2022-12-03T11:13:35.389Z,80.72
2022-12-03T11:18:37.599Z,80.62
2022-12-03T11:23:45.785Z,79.59
2022-12-03T11:28:47.815Z,78.95
2022-12-03T11:34:09.784Z,78.07
2022-12-03T11:39:11.812Z,76.47
2022-12-03T11:44:32.591Z,74.83
2022-12-03T11:49:40.062Z,74.12
2022-12-03T11:54:53.337Z,73.28
2022-12-03T12:00:23.511Z,72.68
2022-12-03T12:05:32.944Z,71.69
2022-12-03T12:10:40.893Z,70.63
2022-12-03T12:15:44.659Z,69.93
2022-12-03T12:20:46.726Z,69.02
2022-12-03T12:25:53.975Z,68.48
2022-12-03T12:30:56.639Z,67.71
2022-12-03T12:35:58.762Z,66.60
2022-12-03T12:41:07.157Z,66.30
2022-12-03T12:46:45.543Z,65.90
2022-12-03T12:51:34.146Z,65.67
2022-12-03T12:56:36.724Z,64.92
2022-12-03T13:01:39.798Z,63.74
2022-12-03T13:06:42.802Z,63.59
2022-12-03T13:11:58.083Z,62.73
2022-12-03T13:17:08.290Z,63.11
2022-12-03T13:22:17.157Z,62.65
2022-12-03T13:27:19.956Z,61.44
2022-12-03T13:32:27.860Z,61.68
2022-12-03T13:37:31.352Z,60.81
2022-12-03T13:42:39.665Z,61.47
2022-12-03T13:47:46.238Z,61.27
2022-12-03T13:52:48.125Z,60.56
2022-12-03T13:57:50.139Z,60.18
2022-12-03T14:02:52.381Z,60.54
2022-12-03T14:07:54.436Z,59.73
2022-12-03T14:12:57.209Z,59.48
2022-12-03T14:18:00.106Z,58.88
2022-12-03T14:23:01.928Z,58.79
2022-12-03T14:28:08.792Z,58.48
2022-12-03T14:33:10.776Z,58.70
2022-12-03T14:38:12.804Z,58.31
2022-12-03T14:43:15.064Z,58.24
2022-12-03T14:48:17.055Z,57.88
2022-12-03T14:53:22.696Z,57.71
2022-12-03T14:58:27.782Z,57.34
2022-12-03T15:03:29.739Z,57.32
2022-12-03T15:08:31.906Z,56.77
2022-12-03T15:13:33.814Z,56.84
2022-12-03T15:18:35.745Z,56.65
2022-12-03T15:23:37.739Z,56.97
2022-12-03T15:28:42.964Z,56.84
2022-12-03T15:33:47.626Z,56.51
2022-12-03T15:38:49.502Z,55.98
2022-12-03T15:43:55.206Z,55.99
2022-12-03T15:48:58.469Z,56.10
2022-12-03T15:54:09.367Z,56.01
2022-12-03T15:59:13.628Z,56.05
2022-12-03T16:04:18.436Z,56.29
2022-12-03T16:09:27.309Z,55.88
2022-12-03T16:14:30.064Z,55.60
2022-12-03T16:19:33.834Z,55.27
2022-12-03T16:24:37.137Z,55.59
2022-12-03T16:29:47.942Z,51.94
2022-12-03T16:34:55.165Z,54.67
2022-12-03T16:39:58.376Z,54.34
2022-12-03T16:45:04.773Z,55.61
2022-12-03T16:50:14.588Z,55.21
2022-12-03T16:55:22.608Z,54.62
2022-12-03T17:00:30.653Z,54.59
2022-12-03T17:05:40.472Z,53.14
2022-12-03T17:10:44.527Z,55.19
2022-12-03T17:15:47.026Z,55.45
2022-12-03T17:20:50.630Z,54.26
2022-12-03T17:25:59.406Z,54.84
2022-12-03T17:31:01.855Z,54.47
2022-12-03T17:36:04.554Z,53.90
2022-12-03T17:41:07.930Z,55.31
2022-12-03T17:46:10.366Z,55.58
2022-12-03T17:51:12.943Z,55.10
2022-12-03T17:56:15.935Z,54.38
2022-12-03T18:01:20.136Z,55.13
2022-12-03T18:06:25.298Z,54.48
2022-12-03T18:11:29.475Z,54.16
2022-12-03T18:16:31.662Z,54.03
2022-12-03T18:21:33.950Z,55.11
2022-12-03T18:26:36.169Z,54.13
2022-12-03T18:31:38.113Z,53.85
2022-12-03T18:36:40.284Z,55.06
2022-12-03T18:41:42.390Z,53.70
2022-12-03T18:46:53.453Z,54.16
2022-12-03T18:51:59.578Z,53.22
2022-12-03T18:57:02.306Z,53.89
2022-12-03T19:02:05.308Z,54.14
2022-12-03T19:07:08.083Z,53.64
2022-12-03T19:12:18.070Z,53.14
2022-12-03T19:17:25.646Z,53.52
2022-12-03T19:22:33.513Z,53.78
2022-12-03T19:27:38.599Z,53.47
2022-12-03T19:32:47.652Z,54.03
2022-12-03T19:37:51.811Z,53.67
2022-12-03T19:42:57.681Z,53.58
2022-12-03T19:48:01.181Z,53.15
2022-12-03T19:53:05.547Z,53.27
2022-12-03T19:58:15.383Z,53.82
2022-12-03T20:03:19.222Z,53.41
2022-12-03T20:08:23.429Z,53.79
2022-12-03T20:13:26.098Z,53.58
2022-12-03T20:18:28.561Z,53.82
2022-12-03T20:23:31.044Z,52.87
2022-12-03T20:28:35.559Z,53.79
2022-12-03T20:33:42.358Z,53.22
2022-12-03T20:38:49.587Z,53.35
2022-12-03T20:43:54.233Z,53.93
2022-12-03T20:49:02.420Z,53.30
2022-12-03T20:54:11.760Z,53.49
2022-12-03T20:59:20.123Z,53.09
2022-12-03T21:04:27.577Z,53.26
2022-12-03T21:09:31.017Z,53.52
2022-12-03T21:14:34.550Z,53.46
2022-12-03T21:19:37.795Z,52.22
2022-12-03T21:24:45.342Z,57.14
2022-12-03T21:29:51.841Z,54.99
2022-12-03T21:34:58.318Z,55.21
2022-12-03T21:40:03.409Z,54.21
2022-12-03T21:45:07.701Z,53.98
2022-12-03T21:50:16.546Z,54.59
2022-12-03T21:55:19.495Z,54.21
2022-12-03T22:00:35.629Z,54.43
2022-12-03T22:05:41.528Z,55.00
2022-12-03T22:10:46.090Z,54.68
2022-12-03T22:15:51.314Z,55.93
2022-12-03T22:20:54.402Z,55.62
2022-12-03T22:26:06.589Z,56.02
2022-12-03T22:31:10.547Z,56.61
2022-12-03T22:36:20.133Z,57.08
2022-12-03T22:41:27.175Z,57.65
2022-12-03T22:46:32.598Z,57.29
2022-12-03T22:51:36.421Z,58.09
2022-12-03T22:56:39.031Z,58.27
2022-12-03T23:01:42.260Z,58.94
2022-12-03T23:06:44.370Z,59.48
2022-12-03T23:11:46.785Z,58.93
2022-12-03T23:16:49.257Z,59.71
2022-12-03T23:21:51.537Z,59.63
2022-12-03T23:26:53.607Z,59.75
2022-12-03T23:31:57.393Z,60.82
2022-12-03T23:36:59.488Z,60.33
2022-12-03T23:42:01.599Z,60.94
2022-12-03T23:47:03.702Z,60.82
2022-12-03T23:52:06.112Z,60.94
2022-12-03T23:57:08.161Z,62.29
